sensor_id;sensor_type;location;lat;lon;timestamp;P1;durP1;ratioP1;P2;durP2;ratioP2
22388;SDS011;11362;48.102;11.620;2023-02-08T00:00:41;4.43;;;4.03;;
22388;SDS011;11362;48.102;11.620;2023-02-08T00:03:07;4.07;;;3.67;;
22388;SDS011;11362;48.102;11.620;2023-02-08T00:05:33;3.43;;;3.17;;
22388;SDS011;11362;48.102;11.620;2023-02-08T00:07:58;4.17;;;3.50;;
22388;SDS011;11362;48.102;11.620;2023-02-08T00:10:23;3.63;;;3.33;;
22388;SDS011;11362;48.102;11.620;2023-02-08T00:12:51;4.07;;;3.77;;
22388;SDS011;11362;48.102;11.620;2023-02-08T00:15:16;4.23;;;3.77;;
22388;SDS011;11362;48.102;11.620;2023-02-08T00:17:42;4.00;;;3.60;;
22388;SDS011;11362;48.102;11.620;2023-02-08T00:20:08;3.20;;;3.00;;
22388;SDS011;11362;48.102;11.620;2023-02-08T00:22:34;3.67;;;3.37;;
22388;SDS011;11362;48.102;11.620;2023-02-08T00:24:59;3.97;;;3.40;;
22388;SDS011;11362;48.102;11.620;2023-02-08T00:27:25;3.90;;;3.60;;
22388;SDS011;11362;48.102;11.620;2023-02-08T00:29:50;4.70;;;3.57;;
22388;SDS011;11362;48.102;11.620;2023-02-08T00:32:15;3.33;;;3.03;;
22388;SDS011;11362;48.102;11.620;2023-02-08T00:34:40;3.63;;;3.33;;
22388;SDS011;11362;48.102;11.620;2023-02-08T00:37:06;3.70;;;3.40;;
22388;SDS011;11362;48.102;11.620;2023-02-08T00:39:31;5.40;;;3.67;;
22388;SDS011;11362;48.102;11.620;2023-02-08T00:41:57;3.43;;;3.07;;
22388;SDS011;11362;48.102;11.620;2023-02-08T00:44:22;3.30;;;3.00;;
22388;SDS011;11362;48.102;11.620;2023-02-08T00:46:47;5.40;;;3.60;;
22388;SDS011;11362;48.102;11.620;2023-02-08T00:49:13;3.70;;;3.40;;
22388;SDS011;11362;48.102;11.620;2023-02-08T00:51:38;3.33;;;3.10;;
22388;SDS011;11362;48.102;11.620;2023-02-08T00:54:03;3.50;;;3.17;;
22388;SDS011;11362;48.102;11.620;2023-02-08T00:56:29;4.10;;;3.80;;
22388;SDS011;11362;48.102;11.620;2023-02-08T00:58:54;3.50;;;3.20;;
22388;SDS011;11362;48.102;11.620;2023-02-08T01:01:19;3.60;;;3.30;;
22388;SDS011;11362;48.102;11.620;2023-02-08T01:03:45;4.27;;;3.80;;
22388;SDS011;11362;48.102;11.620;2023-02-08T01:06:12;3.80;;;3.50;;
22388;SDS011;11362;48.102;11.620;2023-02-08T01:08:39;3.93;;;3.63;;
22388;SDS011;11362;48.102;11.620;2023-02-08T01:11:06;3.77;;;3.47;;
22388;SDS011;11362;48.102;11.620;2023-02-08T01:13:38;3.80;;;3.50;;
22388;SDS011;11362;48.102;11.620;2023-02-08T01:16:12;3.53;;;3.33;;
22388;SDS011;11362;48.102;11.620;2023-02-08T01:18:39;3.43;;;3.20;;
22388;SDS011;11362;48.102;11.620;2023-02-08T01:21:07;3.57;;;3.27;;
22388;SDS011;11362;48.102;11.620;2023-02-08T01:23:34;3.60;;;3.40;;
22388;SDS011;11362;48.102;11.620;2023-02-08T01:26:00;3.20;;;3.00;;
22388;SDS011;11362;48.102;11.620;2023-02-08T01:28:26;3.40;;;3.10;;
22388;SDS011;11362;48.102;11.620;2023-02-08T01:30:51;3.53;;;3.33;;
22388;SDS011;11362;48.102;11.620;2023-02-08T01:33:16;4.00;;;3.70;;
22388;SDS011;11362;48.102;11.620;2023-02-08T01:35:42;4.00;;;3.70;;
22388;SDS011;11362;48.102;11.620;2023-02-08T01:38:07;3.77;;;3.47;;
22388;SDS011;11362;48.102;11.620;2023-02-08T01:40:32;3.70;;;3.40;;
22388;SDS011;11362;48.102;11.620;2023-02-08T01:42:57;3.47;;;3.27;;
22388;SDS011;11362;48.102;11.620;2023-02-08T01:45:24;3.80;;;3.50;;
22388;SDS011;11362;48.102;11.620;2023-02-08T01:47:54;3.93;;;3.63;;
22388;SDS011;11362;48.102;11.620;2023-02-08T01:50:45;3.67;;;3.37;;
22388;SDS011;11362;48.102;11.620;2023-02-08T01:53:21;3.57;;;3.27;;
22388;SDS011;11362;48.102;11.620;2023-02-08T01:55:50;3.50;;;3.30;;
22388;SDS011;11362;48.102;11.620;2023-02-08T01:58:19;4.13;;;3.87;;
22388;SDS011;11362;48.102;11.620;2023-02-08T02:00:46;4.20;;;3.83;;
22388;SDS011;11362;48.102;11.620;2023-02-08T02:03:12;4.00;;;3.63;;
22388;SDS011;11362;48.102;11.620;2023-02-08T02:05:40;3.70;;;3.50;;
22388;SDS011;11362;48.102;11.620;2023-02-08T02:08:07;4.60;;;4.20;;
22388;SDS011;11362;48.102;11.620;2023-02-08T02:10:35;3.43;;;3.23;;
22388;SDS011;11362;48.102;11.620;2023-02-08T02:13:06;3.67;;;3.40;;
22388;SDS011;11362;48.102;11.620;2023-02-08T02:15:34;3.73;;;3.43;;
22388;SDS011;11362;48.102;11.620;2023-02-08T02:18:00;4.10;;;3.80;;
22388;SDS011;11362;48.102;11.620;2023-02-08T02:29:30;4.00;;;3.70;;
22388;SDS011;11362;48.102;11.620;2023-02-08T02:32:27;4.07;;;3.77;;
22388;SDS011;11362;48.102;11.620;2023-02-08T02:37:53;3.70;;;3.40;;
22388;SDS011;11362;48.102;11.620;2023-02-08T02:45:31;3.53;;;3.30;;
22388;SDS011;11362;48.102;11.620;2023-02-08T02:50:40;3.93;;;3.50;;
22388;SDS011;11362;48.102;11.620;2023-02-08T02:55:55;4.03;;;3.63;;
22388;SDS011;11362;48.102;11.620;2023-02-08T02:58:26;4.07;;;3.77;;
22388;SDS011;11362;48.102;11.620;2023-02-08T03:00:55;4.37;;;3.97;;
22388;SDS011;11362;48.102;11.620;2023-02-08T03:03:23;4.07;;;3.77;;
22388;SDS011;11362;48.102;11.620;2023-02-08T03:05:51;3.73;;;3.47;;
22388;SDS011;11362;48.102;11.620;2023-02-08T03:11:24;5.03;;;4.03;;
22388;SDS011;11362;48.102;11.620;2023-02-08T03:16:47;3.80;;;3.50;;
22388;SDS011;11362;48.102;11.620;2023-02-08T03:22:24;3.97;;;3.67;;
22388;SDS011;11362;48.102;11.620;2023-02-08T03:25:22;4.00;;;3.70;;
22388;SDS011;11362;48.102;11.620;2023-02-08T03:30:32;4.00;;;3.70;;
22388;SDS011;11362;48.102;11.620;2023-02-08T03:33:10;3.83;;;3.40;;
22388;SDS011;11362;48.102;11.620;2023-02-08T03:35:41;4.00;;;3.63;;
22388;SDS011;11362;48.102;11.620;2023-02-08T03:38:14;4.70;;;4.30;;
22388;SDS011;11362;48.102;11.620;2023-02-08T03:40:45;4.07;;;3.77;;
22388;SDS011;11362;48.102;11.620;2023-02-08T03:43:14;4.23;;;3.83;;
22388;SDS011;11362;48.102;11.620;2023-02-08T03:45:45;4.13;;;3.83;;
22388;SDS011;11362;48.102;11.620;2023-02-08T03:48:15;4.13;;;3.83;;
22388;SDS011;11362;48.102;11.620;2023-02-08T03:50:45;4.17;;;3.77;;
22388;SDS011;11362;48.102;11.620;2023-02-08T03:53:16;4.00;;;3.70;;
22388;SDS011;11362;48.102;11.620;2023-02-08T03:55:45;4.17;;;3.87;;
22388;SDS011;11362;48.102;11.620;2023-02-08T03:58:27;3.97;;;3.67;;
22388;SDS011;11362;48.102;11.620;2023-02-08T04:01:02;3.93;;;3.63;;
22388;SDS011;11362;48.102;11.620;2023-02-08T04:03:32;4.33;;;3.93;;
22388;SDS011;11362;48.102;11.620;2023-02-08T04:05:59;3.97;;;3.67;;
22388;SDS011;11362;48.102;11.620;2023-02-08T04:08:25;4.40;;;4.10;;
22388;SDS011;11362;48.102;11.620;2023-02-08T04:10:50;4.33;;;3.97;;
22388;SDS011;11362;48.102;11.620;2023-02-08T04:13:16;4.27;;;3.90;;
22388;SDS011;11362;48.102;11.620;2023-02-08T04:15:41;4.40;;;4.00;;
22388;SDS011;11362;48.102;11.620;2023-02-08T04:18:06;4.13;;;3.83;;
22388;SDS011;11362;48.102;11.620;2023-02-08T04:20:32;5.07;;;4.47;;
22388;SDS011;11362;48.102;11.620;2023-02-08T04:22:57;4.30;;;4.00;;
22388;SDS011;11362;48.102;11.620;2023-02-08T04:25:22;3.73;;;3.43;;
22388;SDS011;11362;48.102;11.620;2023-02-08T04:27:48;4.20;;;3.90;;
22388;SDS011;11362;48.102;11.620;2023-02-08T04:30:13;4.40;;;4.00;;
22388;SDS011;11362;48.102;11.620;2023-02-08T04:32:38;4.10;;;3.80;;
22388;SDS011;11362;48.102;11.620;2023-02-08T04:35:04;4.17;;;3.87;;
22388;SDS011;11362;48.102;11.620;2023-02-08T04:37:29;4.00;;;3.60;;
22388;SDS011;11362;48.102;11.620;2023-02-08T04:39:55;4.97;;;4.57;;
22388;SDS011;11362;48.102;11.620;2023-02-08T04:42:20;4.33;;;3.93;;
22388;SDS011;11362;48.102;11.620;2023-02-08T04:44:46;4.07;;;3.77;;
22388;SDS011;11362;48.102;11.620;2023-02-08T04:47:11;3.93;;;3.50;;
22388;SDS011;11362;48.102;11.620;2023-02-08T04:49:36;4.40;;;4.00;;
22388;SDS011;11362;48.102;11.620;2023-02-08T04:52:02;4.00;;;3.70;;
22388;SDS011;11362;48.102;11.620;2023-02-08T04:54:27;4.73;;;4.33;;
22388;SDS011;11362;48.102;11.620;2023-02-08T04:56:53;4.23;;;3.83;;
22388;SDS011;11362;48.102;11.620;2023-02-08T04:59:18;4.50;;;3.73;;
22388;SDS011;11362;48.102;11.620;2023-02-08T05:01:43;4.60;;;4.30;;
22388;SDS011;11362;48.102;11.620;2023-02-08T05:04:09;4.33;;;4.03;;
22388;SDS011;11362;48.102;11.620;2023-02-08T05:06:34;4.47;;;4.10;;
22388;SDS011;11362;48.102;11.620;2023-02-08T05:09:00;4.43;;;4.03;;
22388;SDS011;11362;48.102;11.620;2023-02-08T05:11:25;4.40;;;4.00;;
22388;SDS011;11362;48.102;11.620;2023-02-08T05:13:51;4.37;;;4.07;;
22388;SDS011;11362;48.102;11.620;2023-02-08T05:16:16;4.40;;;4.10;;
22388;SDS011;11362;48.102;11.620;2023-02-08T05:18:42;4.17;;;3.87;;
22388;SDS011;11362;48.102;11.620;2023-02-08T05:21:08;4.30;;;4.00;;
22388;SDS011;11362;48.102;11.620;2023-02-08T05:23:33;4.00;;;3.70;;
22388;SDS011;11362;48.102;11.620;2023-02-08T05:25:58;4.10;;;3.80;;
22388;SDS011;11362;48.102;11.620;2023-02-08T05:28:24;4.30;;;3.90;;
22388;SDS011;11362;48.102;11.620;2023-02-08T05:30:49;4.23;;;3.73;;
22388;SDS011;11362;48.102;11.620;2023-02-08T05:33:15;4.03;;;3.73;;
22388;SDS011;11362;48.102;11.620;2023-02-08T05:35:41;4.17;;;3.87;;
22388;SDS011;11362;48.102;11.620;2023-02-08T05:38:08;4.63;;;4.23;;
22388;SDS011;11362;48.102;11.620;2023-02-08T05:40:33;4.37;;;3.97;;
22388;SDS011;11362;48.102;11.620;2023-02-08T05:42:58;4.63;;;4.23;;
22388;SDS011;11362;48.102;11.620;2023-02-08T05:45:23;4.67;;;4.20;;
22388;SDS011;11362;48.102;11.620;2023-02-08T05:47:49;4.27;;;3.97;;
22388;SDS011;11362;48.102;11.620;2023-02-08T05:50:14;4.57;;;4.17;;
22388;SDS011;11362;48.102;11.620;2023-02-08T05:52:40;4.63;;;4.23;;
22388;SDS011;11362;48.102;11.620;2023-02-08T05:55:05;4.83;;;4.43;;
22388;SDS011;11362;48.102;11.620;2023-02-08T05:57:31;6.03;;;4.50;;
22388;SDS011;11362;48.102;11.620;2023-02-08T05:59:56;6.73;;;4.77;;
22388;SDS011;11362;48.102;11.620;2023-02-08T06:02:22;5.47;;;4.67;;
22388;SDS011;11362;48.102;11.620;2023-02-08T06:04:47;6.47;;;5.83;;
22388;SDS011;11362;48.102;11.620;2023-02-08T06:07:13;10.20;;;5.30;;
22388;SDS011;11362;48.102;11.620;2023-02-08T06:09:38;14.13;;;5.60;;
22388;SDS011;11362;48.102;11.620;2023-02-08T06:12:03;10.43;;;5.10;;
22388;SDS011;11362;48.102;11.620;2023-02-08T06:14:29;6.87;;;5.07;;
22388;SDS011;11362;48.102;11.620;2023-02-08T06:16:54;23.40;;;5.73;;
22388;SDS011;11362;48.102;11.620;2023-02-08T06:19:19;16.53;;;6.77;;
22388;SDS011;11362;48.102;11.620;2023-02-08T06:21:45;9.53;;;5.37;;
22388;SDS011;11362;48.102;11.620;2023-02-08T06:24:10;11.77;;;5.20;;
22388;SDS011;11362;48.102;11.620;2023-02-08T06:26:36;13.83;;;5.57;;
22388;SDS011;11362;48.102;11.620;2023-02-08T06:29:01;13.07;;;5.17;;
22388;SDS011;11362;48.102;11.620;2023-02-08T06:31:27;8.67;;;5.30;;
22388;SDS011;11362;48.102;11.620;2023-02-08T06:33:52;14.50;;;5.83;;
22388;SDS011;11362;48.102;11.620;2023-02-08T06:36:17;19.87;;;6.00;;
22388;SDS011;11362;48.102;11.620;2023-02-08T06:38:43;20.07;;;5.47;;
22388;SDS011;11362;48.102;11.620;2023-02-08T06:41:08;17.77;;;6.23;;
22388;SDS011;11362;48.102;11.620;2023-02-08T06:43:33;17.10;;;6.47;;
22388;SDS011;11362;48.102;11.620;2023-02-08T06:45:59;15.47;;;5.70;;
22388;SDS011;11362;48.102;11.620;2023-02-08T06:48:24;19.03;;;6.37;;
22388;SDS011;11362;48.102;11.620;2023-02-08T06:50:53;16.97;;;7.20;;
22388;SDS011;11362;48.102;11.620;2023-02-08T06:53:18;7.77;;;5.70;;
22388;SDS011;11362;48.102;11.620;2023-02-08T06:55:46;9.63;;;6.23;;
22388;SDS011;11362;48.102;11.620;2023-02-08T06:58:15;14.33;;;5.87;;
22388;SDS011;11362;48.102;11.620;2023-02-08T07:00:41;11.30;;;6.00;;
22388;SDS011;11362;48.102;11.620;2023-02-08T07:03:07;14.40;;;5.83;;
22388;SDS011;11362;48.102;11.620;2023-02-08T07:05:33;9.20;;;5.17;;
22388;SDS011;11362;48.102;11.620;2023-02-08T07:07:59;10.27;;;6.07;;
22388;SDS011;11362;48.102;11.620;2023-02-08T07:10:24;15.60;;;5.70;;
22388;SDS011;11362;48.102;11.620;2023-02-08T07:12:50;11.87;;;5.37;;
22388;SDS011;11362;48.102;11.620;2023-02-08T07:15:16;12.23;;;5.53;;
22388;SDS011;11362;48.102;11.620;2023-02-08T07:17:41;9.27;;;5.13;;
22388;SDS011;11362;48.102;11.620;2023-02-08T07:20:06;13.90;;;9.27;;
22388;SDS011;11362;48.102;11.620;2023-02-08T07:22:33;17.30;;;13.10;;
22388;SDS011;11362;48.102;11.620;2023-02-08T07:24:58;15.77;;;13.83;;
22388;SDS011;11362;48.102;11.620;2023-02-08T07:27:23;16.00;;;13.03;;
22388;SDS011;11362;48.102;11.620;2023-02-08T07:29:49;13.30;;;11.67;;
22388;SDS011;11362;48.102;11.620;2023-02-08T07:32:14;13.30;;;11.33;;
22388;SDS011;11362;48.102;11.620;2023-02-08T07:34:39;12.83;;;10.73;;
22388;SDS011;11362;48.102;11.620;2023-02-08T07:37:05;18.50;;;10.27;;
22388;SDS011;11362;48.102;11.620;2023-02-08T07:39:31;10.33;;;9.33;;
22388;SDS011;11362;48.102;11.620;2023-02-08T07:41:56;11.17;;;8.90;;
22388;SDS011;11362;48.102;11.620;2023-02-08T07:44:22;13.33;;;8.23;;
22388;SDS011;11362;48.102;11.620;2023-02-08T07:46:48;10.07;;;8.17;;
22388;SDS011;11362;48.102;11.620;2023-02-08T07:49:13;13.03;;;9.40;;
22388;SDS011;11362;48.102;11.620;2023-02-08T07:51:39;9.73;;;8.00;;
22388;SDS011;11362;48.102;11.620;2023-02-08T07:54:04;9.73;;;8.83;;
22388;SDS011;11362;48.102;11.620;2023-02-08T07:56:29;8.63;;;7.63;;
22388;SDS011;11362;48.102;11.620;2023-02-08T07:58:55;14.03;;;8.57;;
22388;SDS011;11362;48.102;11.620;2023-02-08T08:01:20;8.50;;;7.67;;
22388;SDS011;11362;48.102;11.620;2023-02-08T08:03:45;12.17;;;8.57;;
22388;SDS011;11362;48.102;11.620;2023-02-08T08:06:11;8.90;;;7.77;;
22388;SDS011;11362;48.102;11.620;2023-02-08T08:08:36;8.20;;;7.40;;
22388;SDS011;11362;48.102;11.620;2023-02-08T08:11:01;9.37;;;7.07;;
22388;SDS011;11362;48.102;11.620;2023-02-08T08:13:27;9.23;;;7.53;;
22388;SDS011;11362;48.102;11.620;2023-02-08T08:15:52;8.83;;;7.93;;
22388;SDS011;11362;48.102;11.620;2023-02-08T08:18:18;8.60;;;7.70;;
22388;SDS011;11362;48.102;11.620;2023-02-08T08:20:43;8.03;;;7.13;;
22388;SDS011;11362;48.102;11.620;2023-02-08T08:23:08;10.97;;;7.30;;
22388;SDS011;11362;48.102;11.620;2023-02-08T08:25:33;8.07;;;7.23;;
22388;SDS011;11362;48.102;11.620;2023-02-08T08:28:00;8.37;;;6.37;;
22388;SDS011;11362;48.102;11.620;2023-02-08T08:30:26;10.07;;;7.50;;
22388;SDS011;11362;48.102;11.620;2023-02-08T08:32:51;10.50;;;7.63;;
22388;SDS011;11362;48.102;11.620;2023-02-08T08:35:17;9.73;;;7.07;;
22388;SDS011;11362;48.102;11.620;2023-02-08T08:37:42;10.33;;;7.13;;
22388;SDS011;11362;48.102;11.620;2023-02-08T08:40:07;7.97;;;7.00;;
22388;SDS011;11362;48.102;11.620;2023-02-08T08:42:34;10.63;;;7.70;;
22388;SDS011;11362;48.102;11.620;2023-02-08T08:44:59;8.87;;;7.07;;
22388;SDS011;11362;48.102;11.620;2023-02-08T08:47:24;7.07;;;6.43;;
22388;SDS011;11362;48.102;11.620;2023-02-08T08:49:50;8.10;;;6.93;;
22388;SDS011;11362;48.102;11.620;2023-02-08T08:52:15;9.93;;;6.93;;
22388;SDS011;11362;48.102;11.620;2023-02-08T08:54:40;8.53;;;7.07;;
22388;SDS011;11362;48.102;11.620;2023-02-08T08:57:06;7.87;;;6.80;;
22388;SDS011;11362;48.102;11.620;2023-02-08T08:59:31;7.87;;;6.73;;
22388;SDS011;11362;48.102;11.620;2023-02-08T09:01:57;8.20;;;6.30;;
22388;SDS011;11362;48.102;11.620;2023-02-08T09:04:22;8.13;;;6.67;;
22388;SDS011;11362;48.102;11.620;2023-02-08T09:06:48;7.87;;;6.53;;
22388;SDS011;11362;48.102;11.620;2023-02-08T09:09:14;9.40;;;6.17;;
22388;SDS011;11362;48.102;11.620;2023-02-08T09:11:40;7.33;;;6.53;;
22388;SDS011;11362;48.102;11.620;2023-02-08T09:14:05;7.50;;;6.70;;
22388;SDS011;11362;48.102;11.620;2023-02-08T09:16:31;8.43;;;6.23;;
22388;SDS011;11362;48.102;11.620;2023-02-08T09:18:59;6.63;;;6.03;;
22388;SDS011;11362;48.102;11.620;2023-02-08T09:21:25;9.17;;;7.23;;
22388;SDS011;11362;48.102;11.620;2023-02-08T09:23:50;7.07;;;6.37;;
22388;SDS011;11362;48.102;11.620;2023-02-08T09:26:16;6.43;;;5.83;;
22388;SDS011;11362;48.102;11.620;2023-02-08T09:28:43;7.90;;;6.00;;
22388;SDS011;11362;48.102;11.620;2023-02-08T09:31:09;6.70;;;6.10;;
22388;SDS011;11362;48.102;11.620;2023-02-08T09:33:36;6.87;;;6.13;;
22388;SDS011;11362;48.102;11.620;2023-02-08T09:36:03;7.10;;;6.03;;
22388;SDS011;11362;48.102;11.620;2023-02-08T09:38:29;7.07;;;5.40;;
22388;SDS011;11362;48.102;11.620;2023-02-08T09:41:02;9.57;;;6.07;;
22388;SDS011;11362;48.102;11.620;2023-02-08T09:43:48;6.33;;;5.50;;
22388;SDS011;11362;48.102;11.620;2023-02-08T09:46:29;6.83;;;6.20;;
22388;SDS011;11362;48.102;11.620;2023-02-08T09:48:59;6.57;;;5.93;;
22388;SDS011;11362;48.102;11.620;2023-02-08T09:54:03;8.00;;;5.67;;
22388;SDS011;11362;48.102;11.620;2023-02-08T09:56:38;7.33;;;6.13;;
22388;SDS011;11362;48.102;11.620;2023-02-08T09:59:07;6.97;;;5.50;;
22388;SDS011;11362;48.102;11.620;2023-02-08T10:01:39;7.30;;;5.43;;
22388;SDS011;11362;48.102;11.620;2023-02-08T10:04:08;6.07;;;5.47;;
22388;SDS011;11362;48.102;11.620;2023-02-08T10:06:39;6.43;;;5.80;;
22388;SDS011;11362;48.102;11.620;2023-02-08T10:09:05;6.83;;;6.23;;
22388;SDS011;11362;48.102;11.620;2023-02-08T10:11:39;7.83;;;6.00;;
22388;SDS011;11362;48.102;11.620;2023-02-08T10:14:16;7.77;;;6.27;;
22388;SDS011;11362;48.102;11.620;2023-02-08T10:19:30;6.37;;;5.80;;
22388;SDS011;11362;48.102;11.620;2023-02-08T10:22:16;7.47;;;5.30;;
22388;SDS011;11362;48.102;11.620;2023-02-08T10:25:05;7.53;;;5.67;;
22388;SDS011;11362;48.102;11.620;2023-02-08T10:27:40;7.67;;;5.60;;
22388;SDS011;11362;48.102;11.620;2023-02-08T10:30:26;6.40;;;4.63;;
22388;SDS011;11362;48.102;11.620;2023-02-08T10:33:05;8.27;;;5.23;;
22388;SDS011;11362;48.102;11.620;2023-02-08T10:35:43;21.53;;;18.63;;
22388;SDS011;11362;48.102;11.620;2023-02-08T10:40:43;26.33;;;22.67;;
22388;SDS011;11362;48.102;11.620;2023-02-08T10:46:08;20.33;;;15.77;;
22388;SDS011;11362;48.102;11.620;2023-02-08T10:51:27;24.17;;;15.83;;
22388;SDS011;11362;48.102;11.620;2023-02-08T10:53:53;19.43;;;14.87;;
22388;SDS011;11362;48.102;11.620;2023-02-08T10:59:18;17.27;;;13.60;;
22388;SDS011;11362;48.102;11.620;2023-02-08T11:01:46;16.37;;;13.30;;
22388;SDS011;11362;48.102;11.620;2023-02-08T11:04:13;14.77;;;12.77;;
22388;SDS011;11362;48.102;11.620;2023-02-08T11:06:39;15.77;;;13.27;;
22388;SDS011;11362;48.102;11.620;2023-02-08T11:09:11;16.73;;;12.77;;
22388;SDS011;11362;48.102;11.620;2023-02-08T11:11:44;14.63;;;12.07;;
22388;SDS011;11362;48.102;11.620;2023-02-08T11:14:15;13.87;;;11.97;;
22388;SDS011;11362;48.102;11.620;2023-02-08T11:16:48;19.83;;;12.10;;
22388;SDS011;11362;48.102;11.620;2023-02-08T11:19:20;15.17;;;11.87;;
22388;SDS011;11362;48.102;11.620;2023-02-08T11:21:57;13.00;;;11.60;;
22388;SDS011;11362;48.102;11.620;2023-02-08T11:24:33;14.10;;;11.27;;
22388;SDS011;11362;48.102;11.620;2023-02-08T11:27:02;11.80;;;10.07;;
22388;SDS011;11362;48.102;11.620;2023-02-08T11:29:40;9.93;;;8.93;;
22388;SDS011;11362;48.102;11.620;2023-02-08T11:32:16;12.17;;;10.03;;
22388;SDS011;11362;48.102;11.620;2023-02-08T11:34:42;12.80;;;9.63;;
22388;SDS011;11362;48.102;11.620;2023-02-08T11:37:18;10.93;;;9.63;;
22388;SDS011;11362;48.102;11.620;2023-02-08T11:39:48;11.60;;;10.40;;
22388;SDS011;11362;48.102;11.620;2023-02-08T11:42:29;9.80;;;8.80;;
22388;SDS011;11362;48.102;11.620;2023-02-08T11:45:00;10.60;;;9.20;;
22388;SDS011;11362;48.102;11.620;2023-02-08T11:47:33;12.27;;;9.03;;
22388;SDS011;11362;48.102;11.620;2023-02-08T11:50:02;12.13;;;8.67;;
22388;SDS011;11362;48.102;11.620;2023-02-08T11:52:33;9.33;;;8.17;;
22388;SDS011;11362;48.102;11.620;2023-02-08T11:58:00;9.30;;;7.80;;
22388;SDS011;11362;48.102;11.620;2023-02-08T12:03:00;10.30;;;8.37;;
22388;SDS011;11362;48.102;11.620;2023-02-08T12:08:26;11.53;;;8.03;;
22388;SDS011;11362;48.102;11.620;2023-02-08T12:16:19;8.73;;;7.83;;
22388;SDS011;11362;48.102;11.620;2023-02-08T12:19:09;8.43;;;7.03;;
22388;SDS011;11362;48.102;11.620;2023-02-08T12:21:52;7.63;;;6.57;;
22388;SDS011;11362;48.102;11.620;2023-02-08T12:35:45;11.07;;;7.20;;
22388;SDS011;11362;48.102;11.620;2023-02-08T12:46:43;7.90;;;6.70;;
22388;SDS011;11362;48.102;11.620;2023-02-08T12:52:02;8.37;;;6.93;;
22388;SDS011;11362;48.102;11.620;2023-02-08T12:54:48;7.23;;;6.53;;
22388;SDS011;11362;48.102;11.620;2023-02-08T12:57:18;7.90;;;6.53;;
22388;SDS011;11362;48.102;11.620;2023-02-08T12:59:47;7.50;;;6.07;;
22388;SDS011;11362;48.102;11.620;2023-02-08T13:02:29;7.23;;;6.53;;
22388;SDS011;11362;48.102;11.620;2023-02-08T13:04:59;6.80;;;6.10;;
22388;SDS011;11362;48.102;11.620;2023-02-08T13:07:32;7.90;;;7.17;;
22388;SDS011;11362;48.102;11.620;2023-02-08T13:10:04;9.60;;;6.87;;
22388;SDS011;11362;48.102;11.620;2023-02-08T13:12:35;8.30;;;6.80;;
22388;SDS011;11362;48.102;11.620;2023-02-08T13:15:21;7.43;;;6.33;;
22388;SDS011;11362;48.102;11.620;2023-02-08T13:18:24;6.77;;;5.70;;
22388;SDS011;11362;48.102;11.620;2023-02-08T13:21:00;6.53;;;5.83;;
22388;SDS011;11362;48.102;11.620;2023-02-08T13:23:36;6.43;;;5.83;;
22388;SDS011;11362;48.102;11.620;2023-02-08T13:26:46;8.63;;;6.50;;
22388;SDS011;11362;48.102;11.620;2023-02-08T13:28:57;9.20;;;6.63;;
22388;SDS011;11362;48.102;11.620;2023-02-08T13:31:28;7.33;;;6.60;;
22388;SDS011;11362;48.102;11.620;2023-02-08T13:33:58;9.23;;;7.00;;
22388;SDS011;11362;48.102;11.620;2023-02-08T13:38:58;7.37;;;6.27;;
22388;SDS011;11362;48.102;11.620;2023-02-08T13:41:25;11.17;;;6.63;;
22388;SDS011;11362;48.102;11.620;2023-02-08T13:43:53;7.80;;;6.50;;
22388;SDS011;11362;48.102;11.620;2023-02-08T13:46:22;7.23;;;6.63;;
22388;SDS011;11362;48.102;11.620;2023-02-08T13:48:51;7.77;;;6.17;;
22388;SDS011;11362;48.102;11.620;2023-02-08T13:56:39;6.97;;;6.27;;
22388;SDS011;11362;48.102;11.620;2023-02-08T14:04:46;6.73;;;6.10;;
22388;SDS011;11362;48.102;11.620;2023-02-08T14:07:16;8.00;;;5.97;;
22388;SDS011;11362;48.102;11.620;2023-02-08T14:10:27;7.13;;;6.40;;
22388;SDS011;11362;48.102;11.620;2023-02-08T14:12:59;8.70;;;6.00;;
22388;SDS011;11362;48.102;11.620;2023-02-08T14:15:32;6.27;;;5.67;;
22388;SDS011;11362;48.102;11.620;2023-02-08T14:17:59;7.30;;;6.60;;
22388;SDS011;11362;48.102;11.620;2023-02-08T14:20:54;13.70;;;6.30;;
22388;SDS011;11362;48.102;11.620;2023-02-08T14:23:23;8.70;;;7.40;;
22388;SDS011;11362;48.102;11.620;2023-02-08T14:25:52;17.23;;;10.73;;
22388;SDS011;11362;48.102;11.620;2023-02-08T14:31:03;13.30;;;10.30;;
22388;SDS011;11362;48.102;11.620;2023-02-08T14:34:14;10.97;;;9.37;;
22388;SDS011;11362;48.102;11.620;2023-02-08T14:39:04;14.90;;;8.53;;
22388;SDS011;11362;48.102;11.620;2023-02-08T14:41:45;11.30;;;8.60;;
22388;SDS011;11362;48.102;11.620;2023-02-08T14:47:09;11.53;;;7.43;;
22388;SDS011;11362;48.102;11.620;2023-02-08T14:49:38;10.17;;;7.10;;
22388;SDS011;11362;48.102;11.620;2023-02-08T14:52:22;14.57;;;7.97;;
22388;SDS011;11362;48.102;11.620;2023-02-08T14:54:53;11.77;;;7.87;;
22388;SDS011;11362;48.102;11.620;2023-02-08T14:57:31;11.00;;;6.97;;
22388;SDS011;11362;48.102;11.620;2023-02-08T15:00:00;9.50;;;7.27;;
22388;SDS011;11362;48.102;11.620;2023-02-08T15:02:29;11.70;;;6.83;;
22388;SDS011;11362;48.102;11.620;2023-02-08T15:04:58;7.93;;;6.60;;
22388;SDS011;11362;48.102;11.620;2023-02-08T15:10:01;9.70;;;6.27;;
22388;SDS011;11362;48.102;11.620;2023-02-08T15:12:32;7.63;;;5.97;;
22388;SDS011;11362;48.102;11.620;2023-02-08T15:15:00;10.20;;;6.63;;
22388;SDS011;11362;48.102;11.620;2023-02-08T15:17:34;8.00;;;6.23;;
22388;SDS011;11362;48.102;11.620;2023-02-08T15:20:06;7.17;;;6.47;;
22388;SDS011;11362;48.102;11.620;2023-02-08T15:22:40;9.37;;;5.67;;
22388;SDS011;11362;48.102;11.620;2023-02-08T15:25:23;8.60;;;6.40;;
22388;SDS011;11362;48.102;11.620;2023-02-08T15:27:49;8.73;;;6.50;;
22388;SDS011;11362;48.102;11.620;2023-02-08T15:33:07;7.83;;;5.23;;
22388;SDS011;11362;48.102;11.620;2023-02-08T15:35:34;10.40;;;6.70;;
22388;SDS011;11362;48.102;11.620;2023-02-08T15:38:00;6.00;;;5.40;;
22388;SDS011;11362;48.102;11.620;2023-02-08T15:40:28;7.17;;;5.53;;
22388;SDS011;11362;48.102;11.620;2023-02-08T15:43:01;6.00;;;5.40;;
22388;SDS011;11362;48.102;11.620;2023-02-08T15:45:36;6.07;;;5.47;;
22388;SDS011;11362;48.102;11.620;2023-02-08T15:48:02;6.40;;;5.60;;
22388;SDS011;11362;48.102;11.620;2023-02-08T15:50:30;6.87;;;5.73;;
22388;SDS011;11362;48.102;11.620;2023-02-08T15:52:57;7.30;;;5.20;;
22388;SDS011;11362;48.102;11.620;2023-02-08T15:55:25;8.13;;;5.60;;
22388;SDS011;11362;48.102;11.620;2023-02-08T15:57:59;6.57;;;5.73;;
22388;SDS011;11362;48.102;11.620;2023-02-08T16:00:30;5.87;;;4.80;;
22388;SDS011;11362;48.102;11.620;2023-02-08T16:03:01;6.07;;;5.43;;
22388;SDS011;11362;48.102;11.620;2023-02-08T16:05:33;5.27;;;4.80;;
22388;SDS011;11362;48.102;11.620;2023-02-08T16:08:00;7.37;;;5.53;;
22388;SDS011;11362;48.102;11.620;2023-02-08T16:12:53;5.37;;;4.87;;
22388;SDS011;11362;48.102;11.620;2023-02-08T16:18:00;6.93;;;5.47;;
22388;SDS011;11362;48.102;11.620;2023-02-08T16:20:33;6.00;;;5.27;;
22388;SDS011;11362;48.102;11.620;2023-02-08T16:25:49;4.77;;;4.27;;
22388;SDS011;11362;48.102;11.620;2023-02-08T16:28:28;5.53;;;5.00;;
22388;SDS011;11362;48.102;11.620;2023-02-08T16:30:57;6.00;;;5.40;;
22388;SDS011;11362;48.102;11.620;2023-02-08T16:33:26;5.37;;;4.87;;
22388;SDS011;11362;48.102;11.620;2023-02-08T16:35:54;5.20;;;4.63;;
22388;SDS011;11362;48.102;11.620;2023-02-08T16:38:21;7.17;;;5.20;;
22388;SDS011;11362;48.102;11.620;2023-02-08T16:40:51;4.77;;;4.37;;
22388;SDS011;11362;48.102;11.620;2023-02-08T16:43:21;6.03;;;5.53;;